KDFI/DFI METAR and TAF weather

Enter ICAO airport designator
Station Type Date Time Source
KDFI METAR 2019/04/21 21:53 UTC NOAA

KDFI 212153Z AUTO 19003KT 10SM CLR 17/06 A3010 RMK AO2 SLP194 T01720061


Station Type Date Time Source
KDFI Decoded METAR 2019/04/21 21:53 UTC NOAA

DEFIANCE MEMORIAL AIRPORT, OH, United States (KDFI) 41-20N 84-26W 219M
Apr 21, 2019 - 05:53 PM EDT / 2019.04.21 2153 UTC
Wind: from the S (190 degrees) at 3 MPH (3 KT):0
Visibility: 10 mile(s):0
Sky conditions: clear
Temperature: 63.0 F (17.2 C)
Dew Point: 43.0 F (6.1 C)
Relative Humidity: 47%
Pressure (altimeter): 30.1 in. Hg (1019 hPa)
ob: KDFI 212153Z AUTO 19003KT 10SM CLR 17/06 A3010 RMK AO2 SLP194 T01720061
cycle: 22

Station Type Date Time Source
KDFI TAF UTC NOAA

Error!

Example: see airport list